sensor_id;sensor_type;location;lat;lon;timestamp;temperature;humidity
15617;DHT22;7908;51.688;7.130;2023-04-08T00:01:23;4.50;99.90
15617;DHT22;7908;51.688;7.130;2023-04-08T00:03:52;4.50;99.90
15617;DHT22;7908;51.688;7.130;2023-04-08T00:06:21;4.50;99.90
15617;DHT22;7908;51.688;7.130;2023-04-08T00:08:51;4.50;99.90
15617;DHT22;7908;51.688;7.130;2023-04-08T00:11:20;4.40;99.90
15617;DHT22;7908;51.688;7.130;2023-04-08T00:13:49;4.40;99.90
15617;DHT22;7908;51.688;7.130;2023-04-08T00:16:18;4.30;99.90
15617;DHT22;7908;51.688;7.130;2023-04-08T00:18:47;4.20;99.90
15617;DHT22;7908;51.688;7.130;2023-04-08T00:21:16;4.20;99.90
15617;DHT22;7908;51.688;7.130;2023-04-08T00:23:47;4.20;99.90
15617;DHT22;7908;51.688;7.130;2023-04-08T00:26:17;4.20;99.90
15617;DHT22;7908;51.688;7.130;2023-04-08T00:28:47;4.10;99.90
15617;DHT22;7908;51.688;7.130;2023-04-08T00:31:16;4.10;99.90
15617;DHT22;7908;51.688;7.130;2023-04-08T00:33:45;4.10;99.90
15617;DHT22;7908;51.688;7.130;2023-04-08T00:36:14;4.10;99.90
15617;DHT22;7908;51.688;7.130;2023-04-08T00:38:42;4.10;99.90
15617;DHT22;7908;51.688;7.130;2023-04-08T00:41:12;4.10;99.90
15617;DHT22;7908;51.688;7.130;2023-04-08T00:43:42;4.00;99.90
15617;DHT22;7908;51.688;7.130;2023-04-08T00:46:11;4.00;99.90
15617;DHT22;7908;51.688;7.130;2023-04-08T00:48:40;4.00;99.90
15617;DHT22;7908;51.688;7.130;2023-04-08T00:51:09;3.80;99.90
15617;DHT22;7908;51.688;7.130;2023-04-08T00:53:38;3.70;99.90
15617;DHT22;7908;51.688;7.130;2023-04-08T00:56:07;3.60;99.90
15617;DHT22;7908;51.688;7.130;2023-04-08T00:58:36;3.60;99.90
15617;DHT22;7908;51.688;7.130;2023-04-08T01:01:09;3.50;99.90
15617;DHT22;7908;51.688;7.130;2023-04-08T01:03:45;3.60;99.90
15617;DHT22;7908;51.688;7.130;2023-04-08T01:06:21;3.50;99.90
15617;DHT22;7908;51.688;7.130;2023-04-08T01:08:51;3.50;99.90
15617;DHT22;7908;51.688;7.130;2023-04-08T01:11:20;3.50;99.90
15617;DHT22;7908;51.688;7.130;2023-04-08T01:13:51;3.70;99.90
15617;DHT22;7908;51.688;7.130;2023-04-08T01:16:24;3.70;99.90
15617;DHT22;7908;51.688;7.130;2023-04-08T01:18:54;3.70;99.90
15617;DHT22;7908;51.688;7.130;2023-04-08T01:21:24;3.80;99.90
15617;DHT22;7908;51.688;7.130;2023-04-08T01:24:00;3.70;99.90
15617;DHT22;7908;51.688;7.130;2023-04-08T01:26:35;3.70;99.90
15617;DHT22;7908;51.688;7.130;2023-04-08T01:29:05;3.60;99.90
15617;DHT22;7908;51.688;7.130;2023-04-08T01:31:35;3.50;99.90
15617;DHT22;7908;51.688;7.130;2023-04-08T01:34:05;3.50;99.90
15617;DHT22;7908;51.688;7.130;2023-04-08T01:36:36;3.50;99.90
15617;DHT22;7908;51.688;7.130;2023-04-08T01:39:06;3.50;99.90
15617;DHT22;7908;51.688;7.130;2023-04-08T01:41:37;3.50;99.90
15617;DHT22;7908;51.688;7.130;2023-04-08T01:44:06;3.40;99.90
15617;DHT22;7908;51.688;7.130;2023-04-08T01:46:36;3.30;99.90
15617;DHT22;7908;51.688;7.130;2023-04-08T01:49:06;3.20;99.90
15617;DHT22;7908;51.688;7.130;2023-04-08T01:51:36;3.10;99.90
15617;DHT22;7908;51.688;7.130;2023-04-08T01:54:05;3.10;99.90
15617;DHT22;7908;51.688;7.130;2023-04-08T01:56:38;3.00;99.90
15617;DHT22;7908;51.688;7.130;2023-04-08T01:59:10;2.90;99.90
15617;DHT22;7908;51.688;7.130;2023-04-08T02:01:41;2.90;99.90
15617;DHT22;7908;51.688;7.130;2023-04-08T02:04:12;2.90;99.90
15617;DHT22;7908;51.688;7.130;2023-04-08T02:06:41;2.90;99.90
15617;DHT22;7908;51.688;7.130;2023-04-08T02:09:09;2.90;99.90
15617;DHT22;7908;51.688;7.130;2023-04-08T02:11:40;3.00;99.90
15617;DHT22;7908;51.688;7.130;2023-04-08T02:14:08;2.90;99.90
15617;DHT22;7908;51.688;7.130;2023-04-08T02:16:41;2.70;99.90
15617;DHT22;7908;51.688;7.130;2023-04-08T02:19:21;2.70;99.90
15617;DHT22;7908;51.688;7.130;2023-04-08T02:21:56;2.60;99.90
15617;DHT22;7908;51.688;7.130;2023-04-08T02:24:27;2.50;99.90
15617;DHT22;7908;51.688;7.130;2023-04-08T02:26:59;2.50;99.90
15617;DHT22;7908;51.688;7.130;2023-04-08T02:29:30;2.50;99.90
15617;DHT22;7908;51.688;7.130;2023-04-08T02:32:00;2.50;99.90
15617;DHT22;7908;51.688;7.130;2023-04-08T02:34:29;2.50;99.90
15617;DHT22;7908;51.688;7.130;2023-04-08T02:36:58;2.40;99.90
15617;DHT22;7908;51.688;7.130;2023-04-08T02:39:30;2.40;99.90
15617;DHT22;7908;51.688;7.130;2023-04-08T02:42:00;2.40;99.90
15617;DHT22;7908;51.688;7.130;2023-04-08T02:44:29;2.30;99.90
15617;DHT22;7908;51.688;7.130;2023-04-08T02:46:58;2.20;99.90
15617;DHT22;7908;51.688;7.130;2023-04-08T02:49:26;2.10;99.90
15617;DHT22;7908;51.688;7.130;2023-04-08T02:51:55;2.10;99.90
15617;DHT22;7908;51.688;7.130;2023-04-08T02:54:23;2.00;99.90
15617;DHT22;7908;51.688;7.130;2023-04-08T02:56:52;2.10;99.90
15617;DHT22;7908;51.688;7.130;2023-04-08T02:59:22;2.00;99.90
15617;DHT22;7908;51.688;7.130;2023-04-08T03:01:51;1.90;99.90
15617;DHT22;7908;51.688;7.130;2023-04-08T03:04:20;1.80;99.90
15617;DHT22;7908;51.688;7.130;2023-04-08T03:06:48;1.80;99.90
15617;DHT22;7908;51.688;7.130;2023-04-08T03:09:17;1.80;99.90
15617;DHT22;7908;51.688;7.130;2023-04-08T03:11:45;1.70;99.90
15617;DHT22;7908;51.688;7.130;2023-04-08T03:14:20;1.70;99.90
15617;DHT22;7908;51.688;7.130;2023-04-08T03:16:50;1.70;99.90
15617;DHT22;7908;51.688;7.130;2023-04-08T03:19:19;1.70;99.90
15617;DHT22;7908;51.688;7.130;2023-04-08T03:21:47;1.70;99.90
15617;DHT22;7908;51.688;7.130;2023-04-08T03:24:16;1.70;99.90
15617;DHT22;7908;51.688;7.130;2023-04-08T03:26:44;1.60;99.90
15617;DHT22;7908;51.688;7.130;2023-04-08T03:29:13;1.60;99.90
15617;DHT22;7908;51.688;7.130;2023-04-08T03:31:42;1.60;99.90
15617;DHT22;7908;51.688;7.130;2023-04-08T03:34:12;1.60;99.90
15617;DHT22;7908;51.688;7.130;2023-04-08T03:36:40;1.50;99.90
15617;DHT22;7908;51.688;7.130;2023-04-08T03:39:09;1.50;99.90
15617;DHT22;7908;51.688;7.130;2023-04-08T03:41:37;1.50;99.90
15617;DHT22;7908;51.688;7.130;2023-04-08T03:44:06;1.50;99.90
15617;DHT22;7908;51.688;7.130;2023-04-08T03:46:35;1.50;99.90
15617;DHT22;7908;51.688;7.130;2023-04-08T03:49:03;1.40;99.90
15617;DHT22;7908;51.688;7.130;2023-04-08T03:51:33;1.30;99.90
15617;DHT22;7908;51.688;7.130;2023-04-08T03:54:02;1.30;99.90
15617;DHT22;7908;51.688;7.130;2023-04-08T03:56:31;1.20;99.90
15617;DHT22;7908;51.688;7.130;2023-04-08T03:59:00;1.30;99.90
15617;DHT22;7908;51.688;7.130;2023-04-08T04:01:28;1.30;99.90
15617;DHT22;7908;51.688;7.130;2023-04-08T04:03:58;1.30;99.90
15617;DHT22;7908;51.688;7.130;2023-04-08T04:06:27;1.30;99.90
15617;DHT22;7908;51.688;7.130;2023-04-08T04:08:57;1.30;99.90
15617;DHT22;7908;51.688;7.130;2023-04-08T04:11:26;1.30;99.90
15617;DHT22;7908;51.688;7.130;2023-04-08T04:13:54;1.30;99.90
15617;DHT22;7908;51.688;7.130;2023-04-08T04:16:23;1.30;99.90
15617;DHT22;7908;51.688;7.130;2023-04-08T04:18:52;1.30;99.90
15617;DHT22;7908;51.688;7.130;2023-04-08T04:21:21;1.30;99.90
15617;DHT22;7908;51.688;7.130;2023-04-08T04:23:49;1.30;99.90
15617;DHT22;7908;51.688;7.130;2023-04-08T04:26:19;1.30;99.90
15617;DHT22;7908;51.688;7.130;2023-04-08T04:28:48;1.30;99.90
15617;DHT22;7908;51.688;7.130;2023-04-08T04:31:20;1.20;99.90
15617;DHT22;7908;51.688;7.130;2023-04-08T04:33:49;1.20;99.90
15617;DHT22;7908;51.688;7.130;2023-04-08T04:36:17;1.20;99.90
15617;DHT22;7908;51.688;7.130;2023-04-08T04:38:47;1.20;99.90
15617;DHT22;7908;51.688;7.130;2023-04-08T04:41:18;1.20;99.90
15617;DHT22;7908;51.688;7.130;2023-04-08T04:43:47;1.10;99.90
15617;DHT22;7908;51.688;7.130;2023-04-08T04:46:16;1.10;99.90
15617;DHT22;7908;51.688;7.130;2023-04-08T04:48:45;1.10;99.90
15617;DHT22;7908;51.688;7.130;2023-04-08T04:51:14;1.10;99.90
15617;DHT22;7908;51.688;7.130;2023-04-08T04:53:42;1.10;99.90
15617;DHT22;7908;51.688;7.130;2023-04-08T04:56:11;1.10;99.90
15617;DHT22;7908;51.688;7.130;2023-04-08T04:58:41;1.00;99.90
15617;DHT22;7908;51.688;7.130;2023-04-08T05:01:09;1.10;99.90
15617;DHT22;7908;51.688;7.130;2023-04-08T05:03:38;1.10;99.90
15617;DHT22;7908;51.688;7.130;2023-04-08T05:06:06;1.10;99.90
15617;DHT22;7908;51.688;7.130;2023-04-08T05:08:35;1.20;99.90
15617;DHT22;7908;51.688;7.130;2023-04-08T05:11:08;1.20;99.90
15617;DHT22;7908;51.688;7.130;2023-04-08T05:13:37;1.20;99.90
15617;DHT22;7908;51.688;7.130;2023-04-08T05:16:07;1.20;99.90
15617;DHT22;7908;51.688;7.130;2023-04-08T05:18:37;1.20;99.90
15617;DHT22;7908;51.688;7.130;2023-04-08T05:21:05;1.30;99.90
15617;DHT22;7908;51.688;7.130;2023-04-08T05:23:34;1.40;99.90
15617;DHT22;7908;51.688;7.130;2023-04-08T05:26:05;1.40;99.90
15617;DHT22;7908;51.688;7.130;2023-04-08T05:28:34;1.50;99.90
15617;DHT22;7908;51.688;7.130;2023-04-08T05:31:02;1.40;99.90
15617;DHT22;7908;51.688;7.130;2023-04-08T05:33:33;1.50;99.90
15617;DHT22;7908;51.688;7.130;2023-04-08T05:36:01;1.60;99.90
15617;DHT22;7908;51.688;7.130;2023-04-08T05:38:30;1.60;99.90
15617;DHT22;7908;51.688;7.130;2023-04-08T05:40:59;1.60;99.90
15617;DHT22;7908;51.688;7.130;2023-04-08T05:43:28;1.60;99.90
15617;DHT22;7908;51.688;7.130;2023-04-08T05:45:56;1.60;99.90
15617;DHT22;7908;51.688;7.130;2023-04-08T05:48:25;1.70;99.90
15617;DHT22;7908;51.688;7.130;2023-04-08T05:50:55;1.90;99.90
15617;DHT22;7908;51.688;7.130;2023-04-08T05:53:24;2.10;99.90
15617;DHT22;7908;51.688;7.130;2023-04-08T05:55:53;2.20;99.90
15617;DHT22;7908;51.688;7.130;2023-04-08T05:58:21;2.10;99.90
15617;DHT22;7908;51.688;7.130;2023-04-08T06:00:50;2.70;99.90
15617;DHT22;7908;51.688;7.130;2023-04-08T06:03:19;2.10;99.90
15617;DHT22;7908;51.688;7.130;2023-04-08T06:05:48;2.20;99.90
15617;DHT22;7908;51.688;7.130;2023-04-08T06:08:18;2.40;99.90
15617;DHT22;7908;51.688;7.130;2023-04-08T06:10:50;2.50;99.90
15617;DHT22;7908;51.688;7.130;2023-04-08T06:13:19;2.60;99.90
15617;DHT22;7908;51.688;7.130;2023-04-08T06:15:48;2.70;99.90
15617;DHT22;7908;51.688;7.130;2023-04-08T06:18:17;2.70;99.90
15617;DHT22;7908;51.688;7.130;2023-04-08T06:20:45;2.70;99.90
15617;DHT22;7908;51.688;7.130;2023-04-08T06:23:14;2.80;99.90
15617;DHT22;7908;51.688;7.130;2023-04-08T06:25:44;3.00;99.90
15617;DHT22;7908;51.688;7.130;2023-04-08T06:28:12;3.20;99.90
15617;DHT22;7908;51.688;7.130;2023-04-08T06:30:41;3.30;99.90
15617;DHT22;7908;51.688;7.130;2023-04-08T06:33:09;3.30;99.90
15617;DHT22;7908;51.688;7.130;2023-04-08T06:35:38;3.30;99.90
15617;DHT22;7908;51.688;7.130;2023-04-08T06:38:07;3.30;99.90
15617;DHT22;7908;51.688;7.130;2023-04-08T06:40:37;3.40;99.90
15617;DHT22;7908;51.688;7.130;2023-04-08T06:43:07;3.50;99.90
15617;DHT22;7908;51.688;7.130;2023-04-08T06:45:36;3.60;99.90
15617;DHT22;7908;51.688;7.130;2023-04-08T06:48:05;3.60;99.90
15617;DHT22;7908;51.688;7.130;2023-04-08T06:50:35;3.80;99.90
15617;DHT22;7908;51.688;7.130;2023-04-08T06:53:04;3.80;99.90
15617;DHT22;7908;51.688;7.130;2023-04-08T06:55:32;3.90;99.90
15617;DHT22;7908;51.688;7.130;2023-04-08T06:58:01;4.00;99.90
15617;DHT22;7908;51.688;7.130;2023-04-08T07:00:31;4.10;99.90
15617;DHT22;7908;51.688;7.130;2023-04-08T07:03:00;4.30;99.90
15617;DHT22;7908;51.688;7.130;2023-04-08T07:05:29;4.40;99.90
15617;DHT22;7908;51.688;7.130;2023-04-08T07:07:57;4.40;99.90
15617;DHT22;7908;51.688;7.130;2023-04-08T07:10:26;4.50;99.90
15617;DHT22;7908;51.688;7.130;2023-04-08T07:12:55;4.60;99.90
15617;DHT22;7908;51.688;7.130;2023-04-08T07:15:24;4.70;99.90
15617;DHT22;7908;51.688;7.130;2023-04-08T07:17:54;4.70;99.90
15617;DHT22;7908;51.688;7.130;2023-04-08T07:20:23;4.80;99.90
15617;DHT22;7908;51.688;7.130;2023-04-08T07:22:52;4.70;99.90
15617;DHT22;7908;51.688;7.130;2023-04-08T07:25:21;4.80;99.90
15617;DHT22;7908;51.688;7.130;2023-04-08T07:27:50;4.90;99.90
15617;DHT22;7908;51.688;7.130;2023-04-08T07:30:19;5.00;99.90
15617;DHT22;7908;51.688;7.130;2023-04-08T07:32:48;5.20;99.90
15617;DHT22;7908;51.688;7.130;2023-04-08T07:35:18;5.30;99.90
15617;DHT22;7908;51.688;7.130;2023-04-08T07:37:50;5.40;99.90
15617;DHT22;7908;51.688;7.130;2023-04-08T07:40:19;5.30;99.90
15617;DHT22;7908;51.688;7.130;2023-04-08T07:42:48;5.80;99.90
15617;DHT22;7908;51.688;7.130;2023-04-08T07:45:17;5.90;99.90
15617;DHT22;7908;51.688;7.130;2023-04-08T07:47:45;6.00;99.90
15617;DHT22;7908;51.688;7.130;2023-04-08T07:50:14;5.90;99.90
15617;DHT22;7908;51.688;7.130;2023-04-08T07:52:44;5.90;99.90
15617;DHT22;7908;51.688;7.130;2023-04-08T07:55:13;6.00;99.90
15617;DHT22;7908;51.688;7.130;2023-04-08T07:57:42;6.00;99.90
15617;DHT22;7908;51.688;7.130;2023-04-08T08:00:13;6.10;99.90
15617;DHT22;7908;51.688;7.130;2023-04-08T08:02:47;6.10;99.90
15617;DHT22;7908;51.688;7.130;2023-04-08T08:05:16;6.20;99.90
15617;DHT22;7908;51.688;7.130;2023-04-08T08:07:47;6.20;99.90
15617;DHT22;7908;51.688;7.130;2023-04-08T08:10:16;6.30;99.90
15617;DHT22;7908;51.688;7.130;2023-04-08T08:12:45;6.40;99.90
15617;DHT22;7908;51.688;7.130;2023-04-08T08:15:14;6.60;99.90
15617;DHT22;7908;51.688;7.130;2023-04-08T08:17:42;6.80;99.90
15617;DHT22;7908;51.688;7.130;2023-04-08T08:20:12;6.90;99.90
15617;DHT22;7908;51.688;7.130;2023-04-08T08:22:40;6.90;99.90
15617;DHT22;7908;51.688;7.130;2023-04-08T08:25:24;6.90;99.90
15617;DHT22;7908;51.688;7.130;2023-04-08T08:27:53;7.00;99.90
15617;DHT22;7908;51.688;7.130;2023-04-08T08:30:22;7.10;99.90
15617;DHT22;7908;51.688;7.130;2023-04-08T08:32:52;7.10;99.90
15617;DHT22;7908;51.688;7.130;2023-04-08T08:35:21;7.20;99.90
15617;DHT22;7908;51.688;7.130;2023-04-08T08:37:50;7.30;99.90
15617;DHT22;7908;51.688;7.130;2023-04-08T08:40:18;7.40;99.90
15617;DHT22;7908;51.688;7.130;2023-04-08T08:42:52;7.40;99.90
15617;DHT22;7908;51.688;7.130;2023-04-08T08:45:21;7.40;99.90
15617;DHT22;7908;51.688;7.130;2023-04-08T08:47:50;7.40;99.90
15617;DHT22;7908;51.688;7.130;2023-04-08T08:50:19;7.50;99.90
15617;DHT22;7908;51.688;7.130;2023-04-08T08:52:48;7.60;99.90
15617;DHT22;7908;51.688;7.130;2023-04-08T08:55:18;7.60;99.90
15617;DHT22;7908;51.688;7.130;2023-04-08T08:58:08;7.70;99.90
15617;DHT22;7908;51.688;7.130;2023-04-08T09:00:38;7.80;99.90
15617;DHT22;7908;51.688;7.130;2023-04-08T09:03:18;7.80;99.90
15617;DHT22;7908;51.688;7.130;2023-04-08T09:05:49;7.80;99.90
15617;DHT22;7908;51.688;7.130;2023-04-08T09:08:26;7.90;99.90
15617;DHT22;7908;51.688;7.130;2023-04-08T09:11:09;7.90;99.90
15617;DHT22;7908;51.688;7.130;2023-04-08T09:13:40;7.80;99.90
15617;DHT22;7908;51.688;7.130;2023-04-08T09:16:10;7.80;99.90
15617;DHT22;7908;51.688;7.130;2023-04-08T09:18:40;7.80;99.90
15617;DHT22;7908;51.688;7.130;2023-04-08T09:21:11;7.80;99.90
15617;DHT22;7908;51.688;7.130;2023-04-08T09:23:42;7.70;99.90
15617;DHT22;7908;51.688;7.130;2023-04-08T09:26:12;7.60;99.90
15617;DHT22;7908;51.688;7.130;2023-04-08T09:28:56;7.50;99.90
15617;DHT22;7908;51.688;7.130;2023-04-08T09:31:44;7.50;99.90
15617;DHT22;7908;51.688;7.130;2023-04-08T09:34:15;7.40;99.90
15617;DHT22;7908;51.688;7.130;2023-04-08T09:36:46;7.40;99.90
15617;DHT22;7908;51.688;7.130;2023-04-08T09:39:15;7.40;99.90
15617;DHT22;7908;51.688;7.130;2023-04-08T09:41:47;7.50;99.90
15617;DHT22;7908;51.688;7.130;2023-04-08T09:44:21;7.60;99.90
15617;DHT22;7908;51.688;7.130;2023-04-08T09:46:59;7.60;99.90
15617;DHT22;7908;51.688;7.130;2023-04-08T09:49:31;7.50;99.90
15617;DHT22;7908;51.688;7.130;2023-04-08T09:52:06;7.50;99.90
15617;DHT22;7908;51.688;7.130;2023-04-08T09:54:40;7.60;99.90
15617;DHT22;7908;51.688;7.130;2023-04-08T09:57:15;7.60;99.90
15617;DHT22;7908;51.688;7.130;2023-04-08T09:59:51;7.60;99.90
15617;DHT22;7908;51.688;7.130;2023-04-08T10:02:28;7.70;99.90
15617;DHT22;7908;51.688;7.130;2023-04-08T10:04:59;7.80;99.90
15617;DHT22;7908;51.688;7.130;2023-04-08T10:07:35;7.80;99.90
15617;DHT22;7908;51.688;7.130;2023-04-08T10:10:05;7.80;99.90
15617;DHT22;7908;51.688;7.130;2023-04-08T10:12:36;7.80;99.90
15617;DHT22;7908;51.688;7.130;2023-04-08T10:15:27;7.80;99.90
15617;DHT22;7908;51.688;7.130;2023-04-08T10:18:30;7.80;99.90
15617;DHT22;7908;51.688;7.130;2023-04-08T10:21:00;7.80;99.90
15617;DHT22;7908;51.688;7.130;2023-04-08T10:23:55;7.80;99.90
15617;DHT22;7908;51.688;7.130;2023-04-08T10:26:39;7.80;99.90
15617;DHT22;7908;51.688;7.130;2023-04-08T10:29:41;7.90;99.90
15617;DHT22;7908;51.688;7.130;2023-04-08T10:32:29;8.00;99.90
15617;DHT22;7908;51.688;7.130;2023-04-08T10:34:58;8.10;99.90
15617;DHT22;7908;51.688;7.130;2023-04-08T10:37:27;8.20;99.90
15617;DHT22;7908;51.688;7.130;2023-04-08T10:39:56;8.50;99.90
15617;DHT22;7908;51.688;7.130;2023-04-08T10:42:28;8.60;99.90
15617;DHT22;7908;51.688;7.130;2023-04-08T10:45:00;8.70;99.90
15617;DHT22;7908;51.688;7.130;2023-04-08T10:47:31;8.70;99.90
15617;DHT22;7908;51.688;7.130;2023-04-08T10:50:10;8.70;99.90
15617;DHT22;7908;51.688;7.130;2023-04-08T10:52:46;8.80;99.90
15617;DHT22;7908;51.688;7.130;2023-04-08T10:55:21;9.00;99.90
15617;DHT22;7908;51.688;7.130;2023-04-08T10:57:51;8.90;99.90
15617;DHT22;7908;51.688;7.130;2023-04-08T11:00:32;8.90;99.90
15617;DHT22;7908;51.688;7.130;2023-04-08T11:03:04;8.90;99.90
15617;DHT22;7908;51.688;7.130;2023-04-08T11:05:37;9.00;99.90
15617;DHT22;7908;51.688;7.130;2023-04-08T11:08:06;9.20;99.90
15617;DHT22;7908;51.688;7.130;2023-04-08T11:10:36;9.20;99.90
15617;DHT22;7908;51.688;7.130;2023-04-08T11:13:07;9.30;99.90
15617;DHT22;7908;51.688;7.130;2023-04-08T11:15:36;9.30;99.90
15617;DHT22;7908;51.688;7.130;2023-04-08T11:18:07;9.40;99.90
15617;DHT22;7908;51.688;7.130;2023-04-08T11:20:37;9.50;99.90
15617;DHT22;7908;51.688;7.130;2023-04-08T11:23:11;9.70;99.90
15617;DHT22;7908;51.688;7.130;2023-04-08T11:25:41;9.80;99.90
15617;DHT22;7908;51.688;7.130;2023-04-08T11:28:11;9.80;99.90
15617;DHT22;7908;51.688;7.130;2023-04-08T11:30:40;9.80;99.90
15617;DHT22;7908;51.688;7.130;2023-04-08T11:33:12;9.70;99.90
15617;DHT22;7908;51.688;7.130;2023-04-08T11:35:43;9.80;99.90
15617;DHT22;7908;51.688;7.130;2023-04-08T11:38:12;9.90;99.90
15617;DHT22;7908;51.688;7.130;2023-04-08T11:40:51;10.10;99.90
15617;DHT22;7908;51.688;7.130;2023-04-08T11:43:21;10.10;99.90
15617;DHT22;7908;51.688;7.130;2023-04-08T11:45:50;10.20;99.90
15617;DHT22;7908;51.688;7.130;2023-04-08T11:48:20;10.30;99.90
15617;DHT22;7908;51.688;7.130;2023-04-08T11:51:02;10.50;99.90
15617;DHT22;7908;51.688;7.130;2023-04-08T11:53:31;10.60;99.90
15617;DHT22;7908;51.688;7.130;2023-04-08T11:56:15;10.60;99.90
15617;DHT22;7908;51.688;7.130;2023-04-08T11:58:44;10.40;99.90
15617;DHT22;7908;51.688;7.130;2023-04-08T12:01:14;10.30;99.90
15617;DHT22;7908;51.688;7.130;2023-04-08T12:03:58;10.40;99.90
15617;DHT22;7908;51.688;7.130;2023-04-08T12:06:28;10.40;99.90
15617;DHT22;7908;51.688;7.130;2023-04-08T12:08:58;10.30;99.90
15617;DHT22;7908;51.688;7.130;2023-04-08T12:11:27;10.30;99.90
15617;DHT22;7908;51.688;7.130;2023-04-08T12:13:55;10.50;99.90
15617;DHT22;7908;51.688;7.130;2023-04-08T12:16:25;10.60;99.90
15617;DHT22;7908;51.688;7.130;2023-04-08T12:18:55;10.60;99.90
15617;DHT22;7908;51.688;7.130;2023-04-08T12:21:24;10.50;99.90
15617;DHT22;7908;51.688;7.130;2023-04-08T12:23:54;10.60;99.90
15617;DHT22;7908;51.688;7.130;2023-04-08T12:26:26;10.60;99.90
15617;DHT22;7908;51.688;7.130;2023-04-08T12:28:56;10.50;99.90
15617;DHT22;7908;51.688;7.130;2023-04-08T12:31:25;10.50;99.90
15617;DHT22;7908;51.688;7.130;2023-04-08T12:33:56;10.50;99.90
15617;DHT22;7908;51.688;7.130;2023-04-08T12:36:25;10.50;99.90
15617;DHT22;7908;51.688;7.130;2023-04-08T12:38:54;10.60;99.90
15617;DHT22;7908;51.688;7.130;2023-04-08T12:41:23;10.70;99.90
15617;DHT22;7908;51.688;7.130;2023-04-08T12:43:52;10.70;99.90
15617;DHT22;7908;51.688;7.130;2023-04-08T12:46:26;10.70;99.90
15617;DHT22;7908;51.688;7.130;2023-04-08T12:48:56;10.80;99.90
15617;DHT22;7908;51.688;7.130;2023-04-08T12:51:31;10.90;99.90
15617;DHT22;7908;51.688;7.130;2023-04-08T12:54:00;11.00;99.90
15617;DHT22;7908;51.688;7.130;2023-04-08T12:56:30;11.10;99.90
15617;DHT22;7908;51.688;7.130;2023-04-08T12:58:59;10.90;99.90
15617;DHT22;7908;51.688;7.130;2023-04-08T13:01:28;10.90;99.90
15617;DHT22;7908;51.688;7.130;2023-04-08T13:03:59;11.00;99.90
15617;DHT22;7908;51.688;7.130;2023-04-08T13:06:28;11.30;99.90
15617;DHT22;7908;51.688;7.130;2023-04-08T13:08:58;11.40;99.90
15617;DHT22;7908;51.688;7.130;2023-04-08T13:11:27;11.50;99.90
15617;DHT22;7908;51.688;7.130;2023-04-08T13:13:56;11.60;99.90
15617;DHT22;7908;51.688;7.130;2023-04-08T13:16:24;11.80;99.90
15617;DHT22;7908;51.688;7.130;2023-04-08T13:18:53;11.80;99.90
15617;DHT22;7908;51.688;7.130;2023-04-08T13:21:24;11.80;99.90
15617;DHT22;7908;51.688;7.130;2023-04-08T13:23:53;11.80;99.90
15617;DHT22;7908;51.688;7.130;2023-04-08T13:26:22;11.80;99.90
15617;DHT22;7908;51.688;7.130;2023-04-08T13:28:51;11.80;99.90
15617;DHT22;7908;51.688;7.130;2023-04-08T13:31:24;11.80;99.90
15617;DHT22;7908;51.688;7.130;2023-04-08T13:33:53;11.60;99.90
15617;DHT22;7908;51.688;7.130;2023-04-08T13:36:26;11.50;99.90
15617;DHT22;7908;51.688;7.130;2023-04-08T13:38:57;11.50;99.90
15617;DHT22;7908;51.688;7.130;2023-04-08T13:41:28;11.50;99.90
15617;DHT22;7908;51.688;7.130;2023-04-08T13:43:57;11.40;99.90
15617;DHT22;7908;51.688;7.130;2023-04-08T13:46:31;11.40;99.90
15617;DHT22;7908;51.688;7.130;2023-04-08T13:49:01;11.50;99.90
15617;DHT22;7908;51.688;7.130;2023-04-08T13:51:32;11.50;99.90
15617;DHT22;7908;51.688;7.130;2023-04-08T13:54:01;11.70;99.90
15617;DHT22;7908;51.688;7.130;2023-04-08T13:56:30;11.80;99.90
15617;DHT22;7908;51.688;7.130;2023-04-08T13:58:59;11.80;99.90
15617;DHT22;7908;51.688;7.130;2023-04-08T14:01:28;11.90;99.90
15617;DHT22;7908;51.688;7.130;2023-04-08T14:03:58;12.00;99.90
15617;DHT22;7908;51.688;7.130;2023-04-08T14:06:27;12.10;99.90
15617;DHT22;7908;51.688;7.130;2023-04-08T14:08:57;12.10;99.90
15617;DHT22;7908;51.688;7.130;2023-04-08T14:11:29;12.20;99.90
15617;DHT22;7908;51.688;7.130;2023-04-08T14:13:58;12.10;99.90
15617;DHT22;7908;51.688;7.130;2023-04-08T14:16:26;12.20;99.90
15617;DHT22;7908;51.688;7.130;2023-04-08T14:18:57;12.20;99.90
15617;DHT22;7908;51.688;7.130;2023-04-08T14:21:26;12.10;99.90
15617;DHT22;7908;51.688;7.130;2023-04-08T14:23:56;12.10;99.90
15617;DHT22;7908;51.688;7.130;2023-04-08T14:26:28;12.20;99.90
15617;DHT22;7908;51.688;7.130;2023-04-08T14:28:59;12.30;99.90
15617;DHT22;7908;51.688;7.130;2023-04-08T14:31:28;12.30;99.90
15617;DHT22;7908;51.688;7.130;2023-04-08T14:34:05;12.20;99.90
15617;DHT22;7908;51.688;7.130;2023-04-08T14:36:35;12.20;99.90
15617;DHT22;7908;51.688;7.130;2023-04-08T14:39:05;12.20;99.90
15617;DHT22;7908;51.688;7.130;2023-04-08T14:41:34;12.30;99.90
15617;DHT22;7908;51.688;7.130;2023-04-08T14:44:03;12.30;99.90
15617;DHT22;7908;51.688;7.130;2023-04-08T14:46:32;12.40;99.90
15617;DHT22;7908;51.688;7.130;2023-04-08T14:49:01;12.40;99.90
15617;DHT22;7908;51.688;7.130;2023-04-08T14:51:30;12.40;99.90
15617;DHT22;7908;51.688;7.130;2023-04-08T14:54:00;12.30;99.90
15617;DHT22;7908;51.688;7.130;2023-04-08T14:56:30;12.20;99.90
15617;DHT22;7908;51.688;7.130;2023-04-08T14:58:59;12.10;99.90
15617;DHT22;7908;51.688;7.130;2023-04-08T15:01:28;12.00;99.90
15617;DHT22;7908;51.688;7.130;2023-04-08T15:03:58;11.80;99.90
15617;DHT22;7908;51.688;7.130;2023-04-08T15:06:27;11.70;99.90
15617;DHT22;7908;51.688;7.130;2023-04-08T15:08:57;11.60;99.90
15617;DHT22;7908;51.688;7.130;2023-04-08T15:11:27;11.50;99.90
15617;DHT22;7908;51.688;7.130;2023-04-08T15:13:58;11.50;99.90
15617;DHT22;7908;51.688;7.130;2023-04-08T15:16:27;11.50;99.90
15617;DHT22;7908;51.688;7.130;2023-04-08T15:18:56;11.50;99.90
15617;DHT22;7908;51.688;7.130;2023-04-08T15:21:26;11.50;99.90
15617;DHT22;7908;51.688;7.130;2023-04-08T15:23:57;11.60;99.90
15617;DHT22;7908;51.688;7.130;2023-04-08T15:26:26;11.60;99.90
15617;DHT22;7908;51.688;7.130;2023-04-08T15:28:55;11.60;99.90
15617;DHT22;7908;51.688;7.130;2023-04-08T15:31:26;11.60;99.90
15617;DHT22;7908;51.688;7.130;2023-04-08T15:33:55;11.60;99.90
15617;DHT22;7908;51.688;7.130;2023-04-08T15:36:24;11.70;99.90
15617;DHT22;7908;51.688;7.130;2023-04-08T15:38:53;11.60;99.90
15617;DHT22;7908;51.688;7.130;2023-04-08T15:41:22;11.60;99.90
15617;DHT22;7908;51.688;7.130;2023-04-08T15:43:51;11.60;99.90
15617;DHT22;7908;51.688;7.130;2023-04-08T15:46:20;11.60;99.90
15617;DHT22;7908;51.688;7.130;2023-04-08T15:48:50;11.60;99.90
15617;DHT22;7908;51.688;7.130;2023-04-08T15:51:20;11.70;99.90
15617;DHT22;7908;51.688;7.130;2023-04-08T15:53:49;11.70;99.90
15617;DHT22;7908;51.688;7.130;2023-04-08T15:56:18;11.60;99.90
15617;DHT22;7908;51.688;7.130;2023-04-08T15:58:47;11.60;99.90
15617;DHT22;7908;51.688;7.130;2023-04-08T16:01:16;11.50;99.90
15617;DHT22;7908;51.688;7.130;2023-04-08T16:03:46;11.40;99.90
15617;DHT22;7908;51.688;7.130;2023-04-08T16:06:16;11.50;99.90
15617;DHT22;7908;51.688;7.130;2023-04-08T16:08:45;11.50;99.90
15617;DHT22;7908;51.688;7.130;2023-04-08T16:11:15;11.60;99.90
15617;DHT22;7908;51.688;7.130;2023-04-08T16:13:43;11.60;99.90
15617;DHT22;7908;51.688;7.130;2023-04-08T16:16:12;11.60;99.90
15617;DHT22;7908;51.688;7.130;2023-04-08T16:18:42;11.60;99.90